Time;durP1;ratioP1;P1;durP2;ratioP2;P2;SDS_P1;SDS_P2;PMS_P1;PMS_P2;Temp;Humidity;BMP_temperature;BMP_pressure;BME280_temperature;BME280_humidity;BME280_pressure;Samples;Min_cycle;Max_cycle;Signal;HPM_P1;HPM_P2
2022/08/06 00:00:48;;;;;;;4.97;2.90;;;20.20;99.90;;;;;;5030005;28;20492;-68
2022/08/06 00:03:15;;;;;;;2.70;2.03;;;20.20;99.90;;;;;;5030032;28;20453;-67
2022/08/06 00:05:43;;;;;;;3.60;2.73;;;20.20;99.90;;;;;;5030092;28;20473;-68
2022/08/06 00:08:10;;;;;;;3.63;2.93;;;20.20;99.90;;;;;;5030347;28;20525;-68
2022/08/06 00:10:37;;;;;;;4.90;2.17;;;20.20;99.90;;;;;;5030163;28;20555;-68
2022/08/06 00:13:04;;;;;;;3.10;2.33;;;20.20;99.90;;;;;;5029422;28;20480;-68
2022/08/06 00:15:32;;;;;;;2.90;2.37;;;20.20;99.90;;;;;;5029899;28;20465;-68
2022/08/06 00:17:59;;;;;;;2.83;2.10;;;20.20;99.90;;;;;;5030187;28;20449;-68
2022/08/06 00:20:26;;;;;;;4.60;2.10;;;20.10;99.90;;;;;;5030051;28;20519;-68
2022/08/06 00:22:54;;;;;;;5.70;2.57;;;20.10;99.90;;;;;;5029847;28;20826;-67
2022/08/06 00:25:21;;;;;;;3.70;2.30;;;20.10;99.90;;;;;;5029336;28;20449;-68
2022/08/06 00:27:48;;;;;;;2.90;2.30;;;20.10;99.90;;;;;;5029736;28;20491;-68
2022/08/06 00:30:15;;;;;;;4.03;2.67;;;20.10;99.90;;;;;;5030037;28;20452;-68
2022/08/06 00:32:41;;;;;;;5.80;2.87;;;20.10;99.90;;;;;;5029727;28;20635;-68
2022/08/06 00:35:08;;;;;;;3.50;2.20;;;20.00;99.90;;;;;;5029230;28;20456;-68
2022/08/06 00:37:36;;;;;;;5.60;2.20;;;20.10;99.90;;;;;;5029861;28;20523;-68
2022/08/06 00:40:05;;;;;;;3.20;1.93;;;20.00;99.90;;;;;;5029714;28;20459;-67
2022/08/06 00:42:31;;;;;;;4.30;2.27;;;20.00;99.90;;;;;;5029676;28;20460;-67
2022/08/06 00:45:00;;;;;;;2.30;1.90;;;20.00;99.90;;;;;;5029429;28;20963;-68
2022/08/06 00:47:27;;;;;;;3.80;1.90;;;20.00;99.90;;;;;;5029256;28;20472;-67
2022/08/06 00:49:54;;;;;;;2.90;2.10;;;20.00;99.90;;;;;;5029471;28;20452;-68
2022/08/06 00:52:20;;;;;;;2.70;2.10;;;19.90;99.90;;;;;;5029317;28;20564;-68
2022/08/06 00:54:47;;;;;;;3.80;1.90;;;19.90;99.90;;;;;;5029181;28;20551;-68
2022/08/06 00:57:15;;;;;;;2.33;1.90;;;19.90;99.90;;;;;;5029316;28;20471;-67
2022/08/06 00:59:42;;;;;;;4.10;1.80;;;19.90;99.90;;;;;;5029623;28;20460;-67
2022/08/06 01:02:09;;;;;;;4.00;2.20;;;19.90;99.90;;;;;;5029511;28;20445;-67
2022/08/06 01:04:36;;;;;;;3.53;2.03;;;19.90;99.90;;;;;;5029169;28;20448;-68
2022/08/06 01:07:02;;;;;;;3.70;2.50;;;19.90;99.90;;;;;;5029219;28;20465;-67
2022/08/06 01:09:29;;;;;;;3.67;2.67;;;19.90;99.90;;;;;;5029215;28;20445;-68
2022/08/06 01:11:56;;;;;;;2.53;1.93;;;19.90;99.90;;;;;;5029264;28;20488;-68
2022/08/06 01:14:24;;;;;;;4.13;1.97;;;19.80;99.90;;;;;;5029429;28;20448;-68
2022/08/06 01:16:58;;;;;;;4.10;2.33;;;19.80;99.90;;;;;;5029057;28;20475;-68
2022/08/06 01:19:49;;;;;;;3.43;2.10;;;19.80;99.90;;;;;;5029537;28;20452;-68
2022/08/06 01:22:29;;;;;;;4.30;2.20;;;19.80;99.90;;;;;;5029416;28;20812;-68
2022/08/06 01:25:20;;;;;;;3.63;1.93;;;19.70;99.90;;;;;;5032776;28;20977;-68
2022/08/06 01:27:53;;;;;;;2.60;2.00;;;19.70;99.90;;;;;;5032751;28;20463;-68
2022/08/06 01:30:21;;;;;;;3.30;2.17;;;19.80;99.90;;;;;;5032654;28;21187;-68
2022/08/06 01:32:54;;;;;;;4.53;2.40;;;19.70;99.90;;;;;;5032784;28;20488;-68
2022/08/06 01:35:26;;;;;;;2.80;2.10;;;19.70;99.90;;;;;;5032274;28;20451;-67
2022/08/06 01:37:59;;;;;;;3.90;2.07;;;19.70;99.90;;;;;;5032643;28;20448;-68
2022/08/06 01:40:30;;;;;;;5.03;2.60;;;19.70;99.90;;;;;;5032554;28;20935;-67
2022/08/06 01:42:59;;;;;;;3.13;2.20;;;19.60;99.90;;;;;;5032713;28;20444;-68
2022/08/06 01:45:30;;;;;;;2.50;1.90;;;19.50;99.90;;;;;;5031978;28;20990;-68
2022/08/06 01:48:02;;;;;;;2.67;2.00;;;19.50;99.90;;;;;;5032826;28;20456;-67
2022/08/06 01:50:33;;;;;;;4.13;1.90;;;19.40;99.90;;;;;;5032409;28;20481;-67
2022/08/06 01:53:02;;;;;;;5.33;2.20;;;19.40;99.90;;;;;;5032306;28;20480;-68
2022/08/06 01:55:32;;;;;;;3.20;1.80;;;19.30;99.90;;;;;;5031776;28;21056;-67
2022/08/06 01:58:03;;;;;;;2.60;1.80;;;19.30;99.90;;;;;;5032534;28;20457;-67
2022/08/06 02:00:31;;;;;;;2.53;1.83;;;19.20;99.90;;;;;;5032259;28;20448;-67
2022/08/06 02:03:00;;;;;;;2.90;2.60;;;19.20;99.90;;;;;;5032296;28;20456;-67
2022/08/06 02:05:30;;;;;;;3.80;2.47;;;19.10;99.90;;;;;;5031731;28;20468;-68
2022/08/06 02:07:58;;;;;;;3.90;2.03;;;19.10;99.90;;;;;;5032199;28;20459;-68
2022/08/06 02:10:27;;;;;;;4.33;2.10;;;19.20;99.90;;;;;;5032286;28;20451;-68
2022/08/06 02:12:54;;;;;;;2.63;2.43;;;19.20;99.90;;;;;;5032091;28;21036;-68
2022/08/06 02:15:27;;;;;;;4.10;2.07;;;19.20;99.90;;;;;;5031790;28;20848;-67
2022/08/06 02:17:57;;;;;;;3.37;2.20;;;19.10;99.90;;;;;;5032116;28;20510;-67
2022/08/06 02:20:27;;;;;;;2.90;2.40;;;19.10;99.90;;;;;;5031877;28;20448;-68
2022/08/06 02:22:55;;;;;;;3.70;2.07;;;19.00;99.90;;;;;;5032061;28;20445;-67
2022/08/06 02:25:23;;;;;;;2.90;2.00;;;19.00;99.90;;;;;;5031460;28;20464;-68
2022/08/06 02:27:53;;;;;;;5.40;2.23;;;18.90;99.90;;;;;;5031622;28;20460;-67
2022/08/06 02:30:20;;;;;;;3.50;2.27;;;18.90;99.90;;;;;;5031573;28;20965;-68
2022/08/06 02:32:48;;;;;;;3.50;2.50;;;18.90;99.90;;;;;;5031328;28;20485;-68
2022/08/06 02:35:15;;;;;;;4.00;2.10;;;18.80;99.90;;;;;;5030341;28;20457;-67
2022/08/06 02:37:45;;;;;;;2.40;1.77;;;18.70;99.90;;;;;;5031621;28;20461;-68
2022/08/06 02:40:20;;;;;;;3.73;2.10;;;18.70;99.90;;;;;;5031567;28;20453;-67
2022/08/06 02:43:02;;;;;;;2.57;2.30;;;18.60;99.90;;;;;;5031713;28;20455;-68
2022/08/06 02:45:35;;;;;;;5.23;2.37;;;18.60;99.90;;;;;;5031088;28;20477;-68
2022/08/06 02:48:08;;;;;;;3.20;2.20;;;18.50;99.90;;;;;;5031588;28;20459;-67
2022/08/06 02:50:38;;;;;;;3.83;2.30;;;18.50;99.90;;;;;;5031417;28;20452;-67
2022/08/06 02:53:07;;;;;;;4.30;2.60;;;18.50;99.90;;;;;;5031106;28;20476;-67
2022/08/06 02:55:39;;;;;;;3.90;2.50;;;18.50;99.90;;;;;;5030699;28;20465;-67
2022/08/06 02:58:12;;;;;;;3.13;2.10;;;18.50;99.90;;;;;;5031363;28;20451;-68
2022/08/06 03:00:43;;;;;;;3.87;2.50;;;18.40;99.90;;;;;;5031256;28;20480;-68
2022/08/06 03:03:14;;;;;;;3.63;2.30;;;18.40;99.90;;;;;;5031603;28;20449;-67
2022/08/06 03:05:44;;;;;;;3.37;2.40;;;18.40;99.90;;;;;;5031240;28;20476;-67
2022/08/06 03:08:15;;;;;;;5.60;2.00;;;18.40;99.90;;;;;;5031320;28;20476;-68
2022/08/06 03:10:44;;;;;;;3.67;2.20;;;18.40;99.90;;;;;;5031655;28;20445;-68
2022/08/06 03:13:11;;;;;;;4.57;2.47;;;18.40;99.90;;;;;;5031607;28;20488;-67
2022/08/06 03:15:39;;;;;;;3.43;2.40;;;18.50;99.90;;;;;;5030641;28;20552;-67
2022/08/06 03:18:07;;;;;;;3.50;2.33;;;18.50;99.90;;;;;;5030797;28;20445;-68
2022/08/06 03:20:36;;;;;;;5.00;2.23;;;18.50;99.90;;;;;;5030657;28;20829;-67
2022/08/06 03:23:08;;;;;;;3.53;2.00;;;18.50;99.90;;;;;;5030800;28;20437;-68
2022/08/06 03:25:38;;;;;;;4.77;2.00;;;18.50;99.90;;;;;;5030348;28;20476;-67
2022/08/06 03:28:06;;;;;;;3.03;2.13;;;18.50;99.90;;;;;;5030352;28;20463;-68
2022/08/06 03:30:35;;;;;;;3.17;2.47;;;18.60;99.90;;;;;;5030538;28;20444;-68
2022/08/06 03:33:05;;;;;;;3.33;2.27;;;18.60;99.90;;;;;;5030210;28;20477;-68
2022/08/06 03:35:36;;;;;;;3.53;2.60;;;18.50;99.90;;;;;;5030030;28;20840;-68
2022/08/06 03:38:04;;;;;;;3.80;2.07;;;18.50;99.90;;;;;;5030520;28;20858;-68
2022/08/06 03:40:32;;;;;;;3.10;2.03;;;18.50;99.90;;;;;;5030445;28;20486;-68
2022/08/06 03:43:00;;;;;;;2.90;2.07;;;18.50;99.90;;;;;;5030531;28;20484;-68
2022/08/06 03:45:28;;;;;;;4.27;2.90;;;18.50;99.90;;;;;;5029990;28;20551;-68
2022/08/06 03:47:57;;;;;;;2.93;2.40;;;18.50;99.90;;;;;;5030125;28;20456;-67
2022/08/06 03:50:30;;;;;;;4.33;2.50;;;18.40;99.90;;;;;;5030607;28;20445;-68
2022/08/06 03:53:03;;;;;;;3.87;2.97;;;18.40;99.90;;;;;;5032046;28;20489;-67
2022/08/06 03:55:34;;;;;;;3.67;2.40;;;18.40;99.90;;;;;;5029821;28;20473;-68
2022/08/06 03:58:03;;;;;;;3.93;2.67;;;18.40;99.90;;;;;;5030033;28;20456;-68
2022/08/06 04:00:35;;;;;;;3.37;1.97;;;18.50;99.90;;;;;;5029941;28;20900;-68
2022/08/06 04:03:04;;;;;;;4.87;2.20;;;18.50;99.90;;;;;;5030159;28;20456;-68
2022/08/06 04:05:33;;;;;;;4.33;2.60;;;18.50;99.90;;;;;;5029829;28;20519;-68
2022/08/06 04:08:06;;;;;;;3.73;2.63;;;18.50;99.90;;;;;;5030431;28;20475;-67
2022/08/06 04:10:37;;;;;;;3.53;2.70;;;18.50;99.90;;;;;;5030057;28;20452;-67
2022/08/06 04:13:06;;;;;;;3.40;2.40;;;18.40;99.90;;;;;;5030188;28;20480;-68
2022/08/06 04:15:33;;;;;;;4.30;2.60;;;18.50;99.90;;;;;;5029671;28;20471;-68
2022/08/06 04:18:00;;;;;;;4.67;2.60;;;18.40;99.90;;;;;;5030021;28;20455;-68
2022/08/06 04:20:28;;;;;;;2.47;2.00;;;18.50;99.90;;;;;;5030137;28;20445;-68
2022/08/06 04:22:56;;;;;;;7.83;2.93;;;18.50;99.90;;;;;;5029836;28;20961;-67
2022/08/06 04:25:27;;;;;;;5.23;2.43;;;18.50;99.90;;;;;;5029559;28;20466;-67
2022/08/06 04:27:56;;;;;;;3.60;2.50;;;18.50;99.90;;;;;;5030199;28;20463;-67
2022/08/06 04:30:26;;;;;;;4.10;2.50;;;18.50;99.90;;;;;;5030087;28;20457;-67
2022/08/06 04:32:53;;;;;;;4.50;2.80;;;18.50;99.90;;;;;;5029720;28;20483;-67
2022/08/06 04:35:22;;;;;;;3.80;2.57;;;18.50;99.90;;;;;;5029389;28;20449;-68
2022/08/06 04:37:50;;;;;;;2.70;2.20;;;18.50;99.90;;;;;;5029511;28;20938;-67
2022/08/06 04:40:17;;;;;;;4.23;2.43;;;18.50;99.90;;;;;;5029821;28;21155;-68
2022/08/06 04:42:45;;;;;;;4.30;2.70;;;18.50;99.90;;;;;;5029442;28;20441;-67
2022/08/06 04:45:12;;;;;;;4.73;2.57;;;18.50;99.90;;;;;;5029216;28;20456;-68
2022/08/06 04:47:40;;;;;;;4.30;2.67;;;18.50;99.90;;;;;;5029659;28;20449;-67
2022/08/06 04:50:08;;;;;;;3.40;2.50;;;18.50;99.90;;;;;;5029507;28;20535;-67
2022/08/06 04:52:34;;;;;;;2.70;2.40;;;18.50;99.90;;;;;;5029563;28;20488;-68
2022/08/06 04:55:01;;;;;;;6.93;2.70;;;18.50;99.90;;;;;;5029082;28;20958;-68
2022/08/06 04:57:28;;;;;;;6.03;3.10;;;18.50;99.90;;;;;;5029787;28;20461;-68
2022/08/06 04:59:56;;;;;;;4.10;2.37;;;18.50;99.90;;;;;;5033336;28;20449;-68
2022/08/06 05:02:23;;;;;;;3.13;2.37;;;18.50;99.90;;;;;;5033345;28;20946;-67
2022/08/06 05:04:55;;;;;;;2.83;2.27;;;18.50;99.90;;;;;;5032845;28;21093;-67
2022/08/06 05:07:24;;;;;;;5.70;2.77;;;18.60;99.90;;;;;;5033465;28;20469;-68
2022/08/06 05:09:51;;;;;;;4.83;2.37;;;18.60;99.90;;;;;;5033361;28;20451;-67
2022/08/06 05:12:24;;;;;;;4.77;2.53;;;18.60;99.90;;;;;;5033236;28;20455;-67
2022/08/06 05:14:55;;;;;;;3.17;2.00;;;18.50;99.90;;;;;;5032781;28;20440;-67
2022/08/06 05:17:27;;;;;;;3.90;2.20;;;18.50;99.90;;;;;;5032803;28;20880;-68
2022/08/06 05:19:59;;;;;;;3.00;2.70;;;18.50;99.90;;;;;;5033110;28;20824;-67
2022/08/06 05:22:28;;;;;;;8.43;3.40;;;18.50;99.90;;;;;;5033031;28;20455;-67
2022/08/06 05:24:55;;;;;;;6.73;2.50;;;18.50;99.90;;;;;;5032357;28;20451;-67
2022/08/06 05:27:22;;;;;;;8.20;2.87;;;18.50;99.90;;;;;;5032831;28;20484;-67
2022/08/06 05:29:51;;;;;;;9.27;4.77;;;18.50;99.90;;;;;;5032660;28;20440;-68
2022/08/06 05:32:18;;;;;;;4.10;2.70;;;18.50;99.90;;;;;;5032996;28;20453;-67
2022/08/06 05:34:48;;;;;;;8.67;3.40;;;18.50;99.90;;;;;;5032542;28;20777;-68
2022/08/06 05:37:15;;;;;;;2.77;2.50;;;18.50;99.90;;;;;;5032651;28;20471;-68
2022/08/06 05:39:41;;;;;;;18.60;4.47;;;18.40;99.90;;;;;;5032611;28;20448;-67
2022/08/06 05:42:08;;;;;;;6.40;3.30;;;18.40;99.90;;;;;;5032508;28;20453;-68
2022/08/06 05:44:35;;;;;;;10.70;3.53;;;18.40;99.90;;;;;;5032103;28;20552;-67
2022/08/06 05:47:06;;;;;;;4.43;2.80;;;18.40;99.90;;;;;;5032535;28;20490;-68
2022/08/06 05:49:39;;;;;;;7.60;3.20;;;18.30;99.90;;;;;;5032499;28;20508;-68
2022/08/06 05:52:14;;;;;;;7.50;3.50;;;18.30;99.90;;;;;;5032438;28;20468;-67
2022/08/06 05:54:47;;;;;;;17.20;4.60;;;18.30;99.90;;;;;;5031848;28;20490;-67
2022/08/06 05:57:19;;;;;;;3.00;2.50;;;18.40;99.90;;;;;;5032517;28;20461;-68
2022/08/06 05:59:53;;;;;;;3.90;2.80;;;18.40;99.90;;;;;;5032437;28;20445;-67
2022/08/06 06:02:21;;;;;;;4.27;2.90;;;18.40;99.90;;;;;;5032439;28;20467;-68
2022/08/06 06:04:49;;;;;;;4.33;2.83;;;18.40;99.90;;;;;;5031935;28;20441;-67
2022/08/06 06:07:18;;;;;;;3.57;2.60;;;18.50;99.90;;;;;;5031988;28;20512;-68
2022/08/06 06:09:45;;;;;;;6.00;2.40;;;18.50;99.90;;;;;;5032158;28;20451;-68
2022/08/06 06:12:13;;;;;;;2.90;2.60;;;18.50;99.90;;;;;;5032163;28;20453;-67
2022/08/06 06:14:43;;;;;;;5.60;3.20;;;18.60;99.90;;;;;;5031650;28;20485;-68
2022/08/06 06:17:32;;;;;;;3.00;2.47;;;18.70;99.90;;;;;;5031919;28;21047;-67
2022/08/06 06:20:08;;;;;;;2.90;2.30;;;18.80;99.90;;;;;;5031922;28;20449;-67
2022/08/06 06:22:42;;;;;;;3.90;2.43;;;18.90;99.90;;;;;;5031970;28;20798;-67
2022/08/06 06:25:14;;;;;;;4.40;2.73;;;18.90;99.90;;;;;;5031436;28;20459;-67
2022/08/06 06:27:47;;;;;;;3.70;2.57;;;19.00;99.90;;;;;;5031526;28;20511;-67
2022/08/06 06:30:22;;;;;;;4.10;2.80;;;19.00;99.90;;;;;;5031752;28;20480;-66
2022/08/06 06:32:53;;;;;;;2.80;2.33;;;19.00;99.90;;;;;;5031968;28;20522;-66
2022/08/06 06:35:35;;;;;;;4.47;2.33;;;19.00;99.90;;;;;;5031647;28;20451;-67
2022/08/06 06:38:38;;;;;;;4.60;2.50;;;19.10;99.90;;;;;;5032086;28;20445;-67
2022/08/06 06:41:11;;;;;;;3.07;2.30;;;19.10;99.90;;;;;;5031900;28;20450;-66
2022/08/06 06:43:44;;;;;;;6.13;3.10;;;19.10;99.90;;;;;;5031990;28;20437;-66
2022/08/06 06:46:18;;;;;;;5.23;3.30;;;19.20;99.90;;;;;;5031525;28;20473;-67
2022/08/06 06:48:49;;;;;;;4.27;2.80;;;19.30;99.90;;;;;;5031545;28;20441;-65
2022/08/06 06:51:24;;;;;;;3.30;2.60;;;19.40;99.90;;;;;;5031811;28;20492;-67
2022/08/06 06:53:55;;;;;;;3.87;2.90;;;19.50;99.90;;;;;;5031482;28;20503;-66
2022/08/06 06:56:27;;;;;;;5.63;2.77;;;19.60;99.90;;;;;;5031070;28;20559;-67
2022/08/06 06:58:59;;;;;;;5.00;2.47;;;19.80;99.90;;;;;;5031599;28;20445;-67
2022/08/06 07:01:27;;;;;;;5.03;3.03;;;20.10;99.90;;;;;;5031199;28;20856;-66
2022/08/06 07:03:55;;;;;;;5.70;3.10;;;20.20;99.90;;;;;;5031034;28;20449;-66
2022/08/06 07:06:23;;;;;;;3.47;2.83;;;20.20;99.90;;;;;;5030607;28;20473;-67
2022/08/06 07:08:51;;;;;;;3.77;2.50;;;20.20;99.90;;;;;;5031042;28;20440;-67
2022/08/06 07:11:21;;;;;;;3.43;3.13;;;20.10;99.90;;;;;;5031011;28;20453;-66
2022/08/06 07:13:51;;;;;;;2.90;2.40;;;20.00;99.90;;;;;;5031025;28;20858;-66
2022/08/06 07:16:20;;;;;;;3.57;2.47;;;19.90;99.90;;;;;;5030315;28;20551;-67
2022/08/06 07:18:49;;;;;;;4.40;2.93;;;19.90;99.90;;;;;;5030997;28;20559;-66
2022/08/06 07:21:18;;;;;;;4.10;2.63;;;20.00;99.90;;;;;;5030391;28;20449;-67
2022/08/06 07:23:48;;;;;;;5.87;3.00;;;20.00;99.90;;;;;;5030615;28;20831;-67
2022/08/06 07:26:17;;;;;;;4.57;2.77;;;20.00;99.90;;;;;;5030086;28;21008;-67
2022/08/06 07:28:46;;;;;;;5.63;2.73;;;19.90;99.90;;;;;;5030606;28;20484;-67
2022/08/06 07:31:14;;;;;;;6.37;2.80;;;20.00;99.90;;;;;;5030517;28;20452;-67
2022/08/06 07:33:43;;;;;;;4.13;3.20;;;20.10;99.90;;;;;;5031054;28;20487;-68
2022/08/06 07:36:10;;;;;;;3.97;3.30;;;20.10;99.90;;;;;;5030017;28;20505;-68
2022/08/06 07:38:42;;;;;;;3.37;3.00;;;20.20;99.90;;;;;;5030544;28;20571;-67
2022/08/06 07:41:10;;;;;;;3.53;2.70;;;20.20;99.90;;;;;;5030161;28;20460;-68
2022/08/06 07:43:43;;;;;;;3.80;2.60;;;20.30;99.90;;;;;;5030405;28;20441;-66
2022/08/06 07:46:17;;;;;;;3.00;2.70;;;20.30;99.90;;;;;;5030288;28;20560;-67
2022/08/06 07:48:48;;;;;;;2.93;2.63;;;20.30;99.90;;;;;;5030425;28;20452;-66
2022/08/06 07:51:16;;;;;;;3.23;2.73;;;20.40;99.90;;;;;;5030284;28;21085;-67
2022/08/06 07:53:45;;;;;;;4.00;2.33;;;20.60;99.90;;;;;;5030124;28;20865;-67
2022/08/06 07:56:12;;;;;;;3.40;2.70;;;20.70;99.90;;;;;;5029920;28;20477;-67
2022/08/06 07:58:40;;;;;;;4.00;2.50;;;20.80;99.90;;;;;;5030109;28;20951;-67
2022/08/06 08:01:07;;;;;;;4.15;2.70;;;21.00;99.90;;;;;;5029855;28;20455;-67
2022/08/06 08:06:24;;;;;;;5.27;2.80;;;21.40;99.90;;;;;;5029609;28;20475;-66
2022/08/06 08:08:54;;;;;;;3.50;2.70;;;21.50;99.90;;;;;;5030350;28;20460;-67
2022/08/06 08:11:24;;;;;;;5.53;2.97;;;21.50;99.90;;;;;;5030059;28;20441;-66
2022/08/06 08:13:53;;;;;;;3.80;2.80;;;21.50;99.90;;;;;;5029934;28;20481;-66
2022/08/06 08:16:21;;;;;;;3.77;2.97;;;21.50;99.90;;;;;;5029556;28;20472;-68
2022/08/06 08:18:49;;;;;;;2.60;2.20;;;21.60;99.90;;;;;;5029908;28;20536;-67
2022/08/06 08:21:16;;;;;;;3.37;2.60;;;21.80;99.90;;;;;;5029871;28;20506;-67
2022/08/06 08:23:44;;;;;;;4.50;2.50;;;22.00;99.90;;;;;;5029927;28;20441;-67
2022/08/06 08:26:11;;;;;;;2.90;2.60;;;22.20;99.90;;;;;;5029257;28;20480;-67
2022/08/06 08:28:38;;;;;;;5.37;2.87;;;22.50;99.90;;;;;;5029968;28;20449;-68
2022/08/06 08:31:06;;;;;;;3.20;2.63;;;22.80;99.90;;;;;;5029688;28;20444;-67
2022/08/06 08:33:35;;;;;;;5.40;2.20;;;23.00;99.90;;;;;;5032723;28;20540;-67
2022/08/06 08:36:04;;;;;;;4.90;2.70;;;22.80;99.90;;;;;;5033818;28;20468;-68
2022/08/06 08:38:33;;;;;;;3.87;2.50;;;22.40;99.70;;;;;;5033909;28;20456;-68
2022/08/06 08:41:04;;;;;;;5.10;3.07;;;22.30;99.90;;;;;;5033826;28;20455;-68
2022/08/06 08:43:38;;;;;;;4.40;2.30;;;22.20;99.90;;;;;;5033749;28;20575;-68
2022/08/06 08:46:08;;;;;;;4.20;2.90;;;22.20;99.90;;;;;;5033680;28;20840;-68
2022/08/06 08:48:37;;;;;;;4.00;2.57;;;21.90;99.90;;;;;;5033988;28;20916;-67
2022/08/06 08:51:06;;;;;;;3.70;3.07;;;21.50;99.90;;;;;;5033834;28;20452;-67
2022/08/06 08:53:38;;;;;;;3.80;2.80;;;21.50;99.90;;;;;;5033827;28;20455;-68
2022/08/06 08:56:07;;;;;;;2.60;2.17;;;21.90;99.90;;;;;;5033289;28;20475;-68
2022/08/06 08:58:36;;;;;;;3.87;2.80;;;22.20;99.90;;;;;;5033846;28;20838;-68
2022/08/06 09:01:07;;;;;;;4.23;2.67;;;22.50;99.90;;;;;;5033446;28;20456;-67
2022/08/06 09:03:35;;;;;;;4.70;2.60;;;22.70;99.90;;;;;;5033508;28;20452;-68
2022/08/06 09:06:03;;;;;;;4.00;2.33;;;23.00;99.70;;;;;;5032971;28;20469;-68
2022/08/06 09:08:32;;;;;;;4.20;2.53;;;23.20;99.30;;;;;;5033205;28;20445;-68
2022/08/06 09:11:00;;;;;;;3.00;2.37;;;23.60;97.30;;;;;;5033428;28;20457;-68
2022/08/06 09:13:27;;;;;;;3.90;2.40;;;23.70;97.50;;;;;;5033292;28;20831;-68
2022/08/06 09:15:55;;;;;;;3.50;2.60;;;24.00;98.20;;;;;;5032657;28;20499;-67
2022/08/06 09:18:25;;;;;;;3.80;2.80;;;24.00;97.80;;;;;;5033042;28;20756;-68
2022/08/06 09:20:52;;;;;;;5.30;2.80;;;24.20;97.50;;;;;;5032823;28;20447;-67
2022/08/06 09:23:19;;;;;;;2.97;2.17;;;24.40;96.00;;;;;;5033060;28;20456;-68
2022/08/06 09:25:49;;;;;;;2.90;2.00;;;24.20;95.10;;;;;;5032565;28;20467;-67
2022/08/06 09:28:35;;;;;;;3.20;2.60;;;24.40;95.50;;;;;;5032872;28;20548;-67
2022/08/06 09:31:05;;;;;;;2.60;2.10;;;25.00;96.10;;;;;;5032208;28;20449;-68
2022/08/06 09:33:33;;;;;;;3.23;2.10;;;25.20;94.50;;;;;;5032678;28;20479;-68
2022/08/06 09:36:02;;;;;;;2.80;2.40;;;25.30;93.50;;;;;;5032243;28;21026;-68
2022/08/06 09:38:29;;;;;;;3.43;2.17;;;25.10;92.40;;;;;;5032792;28;20531;-68
2022/08/06 09:41:09;;;;;;;3.83;2.40;;;25.20;93.10;;;;;;5032855;28;20447;-68
2022/08/06 09:43:37;;;;;;;4.27;2.40;;;26.10;93.30;;;;;;5032367;28;20448;-68
2022/08/06 09:46:04;;;;;;;3.03;2.43;;;26.40;91.10;;;;;;5032550;28;20497;-68
2022/08/06 09:48:31;;;;;;;5.63;2.30;;;27.00;90.60;;;;;;5032499;28;20453;-68
2022/08/06 09:50:58;;;;;;;3.30;2.20;;;27.10;89.40;;;;;;5032611;28;20456;-68
2022/08/06 09:53:27;;;;;;;3.00;2.10;;;27.10;86.70;;;;;;5032348;28;20453;-68
2022/08/06 09:55:55;;;;;;;3.00;2.17;;;27.40;87.10;;;;;;5031972;28;20489;-68
2022/08/06 09:58:34;;;;;;;7.40;2.67;;;28.00;82.90;;;;;;5032253;28;20440;-68
2022/08/06 10:01:14;;;;;;;3.03;2.10;;;28.00;81.80;;;;;;5032326;28;20449;-68
2022/08/06 10:03:41;;;;;;;3.17;1.80;;;27.60;79.90;;;;;;5032118;28;20449;-68
2022/08/06 10:06:10;;;;;;;2.93;2.07;;;27.50;80.30;;;;;;5031970;28;20491;-68
2022/08/06 10:08:37;;;;;;;3.07;1.80;;;27.50;80.60;;;;;;5032286;28;20548;-67
2022/08/06 10:11:04;;;;;;;3.37;2.03;;;27.60;81.80;;;;;;5031960;28;20449;-67
2022/08/06 10:13:33;;;;;;;3.37;1.93;;;27.70;78.80;;;;;;5032251;28;20453;-68
2022/08/06 10:16:14;;;;;;;3.23;2.33;;;27.20;80.20;;;;;;5031859;28;20886;-68
2022/08/06 10:18:43;;;;;;;3.70;2.20;;;26.50;80.30;;;;;;5032064;28;20832;-68
2022/08/06 10:21:13;;;;;;;3.03;2.37;;;25.40;86.20;;;;;;5031909;28;20441;-68
2022/08/06 10:23:42;;;;;;;2.60;2.40;;;25.30;87.70;;;;;;5031618;28;20948;-67
2022/08/06 10:26:10;;;;;;;4.40;2.60;;;25.40;87.30;;;;;;5031555;28;20551;-68
2022/08/06 10:28:40;;;;;;;3.57;2.30;;;25.30;83.20;;;;;;5031812;28;21159;-68
2022/08/06 10:31:11;;;;;;;3.17;2.30;;;24.50;83.50;;;;;;5032038;28;20507;-68
2022/08/06 10:33:42;;;;;;;3.27;2.37;;;24.10;85.20;;;;;;5032384;28;20455;-68
2022/08/06 10:36:12;;;;;;;3.20;2.20;;;23.80;86.30;;;;;;5031837;28;20488;-68
2022/08/06 10:38:41;;;;;;;3.00;2.30;;;24.00;90.50;;;;;;5032557;28;20448;-69
2022/08/06 10:41:11;;;;;;;3.17;2.40;;;25.00;87.00;;;;;;5032254;28;20464;-68
2022/08/06 10:43:40;;;;;;;4.23;2.90;;;26.00;84.40;;;;;;5032098;28;20976;-68
2022/08/06 10:46:15;;;;;;;3.80;2.23;;;26.40;81.50;;;;;;5031480;28;20469;-69
2022/08/06 10:48:43;;;;;;;5.63;1.90;;;26.90;79.10;;;;;;5031662;28;20452;-68
2022/08/06 10:51:12;;;;;;;2.40;1.90;;;27.40;81.70;;;;;;5031588;28;20445;-69
2022/08/06 10:53:41;;;;;;;4.83;2.10;;;27.80;76.80;;;;;;5031518;28;20449;-68
2022/08/06 10:56:09;;;;;;;2.97;1.70;;;28.20;79.10;;;;;;5029694;28;20507;-67
2022/08/06 10:58:39;;;;;;;2.50;2.00;;;28.10;75.50;;;;;;5031489;28;20453;-67
2022/08/06 11:01:08;;;;;;;3.30;2.30;;;27.00;75.90;;;;;;5031575;28;20540;-67
2022/08/06 11:03:46;;;;;;;2.93;2.03;;;26.10;79.30;;;;;;5031499;28;20445;-66
2022/08/06 11:06:27;;;;;;;4.53;2.57;;;25.70;83.40;;;;;;5031098;28;20461;-65
2022/08/06 11:09:06;;;;;;;4.53;2.10;;;25.10;82.30;;;;;;5031492;28;20449;-67
2022/08/06 11:11:53;;;;;;;2.40;2.00;;;24.80;83.30;;;;;;5031023;28;20891;-67
2022/08/06 11:14:22;;;;;;;3.30;2.33;;;24.70;84.00;;;;;;5031179;28;20449;-68
2022/08/06 11:16:56;;;;;;;3.40;2.20;;;24.80;84.10;;;;;;5030517;28;20468;-67
2022/08/06 11:19:39;;;;;;;3.97;2.40;;;25.00;82.30;;;;;;5030916;28;20453;-68
2022/08/06 11:22:06;;;;;;;3.70;2.43;;;24.60;83.30;;;;;;5030709;28;20449;-67
2022/08/06 11:24:33;;;;;;;3.77;2.23;;;24.60;83.70;;;;;;5030482;28;20453;-67
2022/08/06 11:27:00;;;;;;;3.77;2.40;;;24.90;83.90;;;;;;5028637;28;20481;-68
2022/08/06 11:29:28;;;;;;;3.47;2.00;;;25.00;82.50;;;;;;5029391;28;20460;-67
2022/08/06 11:31:57;;;;;;;5.20;2.07;;;26.00;81.00;;;;;;5030416;28;20484;-68
2022/08/06 11:34:42;;;;;;;4.67;2.30;;;27.20;76.50;;;;;;5029166;28;21025;-67
2022/08/06 11:37:08;;;;;;;2.73;2.10;;;27.80;76.30;;;;;;5030210;28;20903;-67
2022/08/06 11:40:05;;;;;;;4.60;2.03;;;28.90;75.90;;;;;;5030252;28;20449;-67
2022/08/06 11:42:42;;;;;;;2.70;2.23;;;29.60;69.60;;;;;;5030164;28;20506;-67
2022/08/06 11:45:12;;;;;;;3.13;1.90;;;29.20;71.20;;;;;;5029936;28;20503;-67
2022/08/06 11:48:05;;;;;;;3.00;1.93;;;30.00;70.60;;;;;;5030166;28;20437;-67
2022/08/06 11:50:32;;;;;;;5.13;2.00;;;30.40;68.70;;;;;;5030085;28;20457;-66
2022/08/06 11:52:59;;;;;;;3.33;1.93;;;31.10;64.00;;;;;;5030523;28;20449;-65
2022/08/06 11:55:26;;;;;;;3.50;2.10;;;30.30;63.80;;;;;;5029133;28;20483;-67
2022/08/06 11:58:20;;;;;;;4.13;2.27;;;29.70;66.10;;;;;;5030164;28;20453;-67
2022/08/06 12:00:59;;;;;;;6.50;3.00;;;28.20;68.40;;;;;;5020139;28;20455;-67
2022/08/06 12:03:39;;;;;;;2.83;2.03;;;27.30;73.10;;;;;;5029988;28;20826;-67
2022/08/06 12:06:20;;;;;;;4.50;2.37;;;27.40;73.50;;;;;;5029956;28;20457;-67
2022/08/06 12:09:09;;;;;;;4.17;2.27;;;26.70;73.30;;;;;;5029803;28;20441;-67
2022/08/06 12:11:35;;;;;;;3.63;2.57;;;25.90;76.80;;;;;;5030013;28;20457;-67
2022/08/06 12:14:04;;;;;;;2.87;2.17;;;25.90;77.60;;;;;;5029728;28;20535;-67
2022/08/06 12:16:39;;;;;;;4.27;3.03;;;26.80;77.80;;;;;;5029482;28;20485;-67
2022/08/06 12:19:13;;;;;;;3.20;2.20;;;27.60;72.10;;;;;;5029978;28;20532;-68
2022/08/06 12:21:42;;;;;;;2.83;2.20;;;28.90;71.30;;;;;;5029612;28;20507;-68
2022/08/06 12:24:09;;;;;;;2.77;1.97;;;29.70;65.80;;;;;;5030817;28;20543;-68
2022/08/06 12:26:36;;;;;;;2.63;1.80;;;30.10;64.60;;;;;;5029247;28;20480;-68
2022/08/06 12:29:07;;;;;;;2.83;1.83;;;30.60;65.00;;;;;;5030045;28;20460;-68
2022/08/06 12:31:40;;;;;;;7.13;2.30;;;29.90;64.40;;;;;;5029779;28;20445;-68
2022/08/06 12:34:07;;;;;;;3.33;2.00;;;29.20;65.10;;;;;;5029662;28;20448;-68
2022/08/06 12:36:36;;;;;;;2.43;2.10;;;29.80;66.70;;;;;;5029007;28;20491;-68
2022/08/06 12:39:06;;;;;;;3.80;2.03;;;30.80;64.70;;;;;;5029559;28;20459;-67
2022/08/06 12:41:39;;;;;;;2.37;1.90;;;30.80;59.80;;;;;;5029860;28;20456;-67
2022/08/06 12:44:06;;;;;;;3.67;1.77;;;31.10;63.10;;;;;;5029440;28;20543;-68
2022/08/06 12:46:32;;;;;;;3.03;2.00;;;31.10;60.60;;;;;;5029291;28;20556;-68
2022/08/06 12:49:01;;;;;;;4.10;2.03;;;31.20;58.00;;;;;;5029355;28;20452;-66
2022/08/06 12:51:28;;;;;;;3.10;1.73;;;30.90;59.70;;;;;;5029351;28;20824;-67
2022/08/06 12:53:58;;;;;;;4.40;3.80;;;31.70;57.50;;;;;;5029462;28;20502;-67
2022/08/06 12:56:26;;;;;;;3.43;2.40;;;31.40;56.00;;;;;;5029014;28;20503;-67
2022/08/06 12:58:55;;;;;;;3.53;1.93;;;30.60;57.40;;;;;;5029330;28;20452;-68
2022/08/06 13:01:24;;;;;;;3.70;2.10;;;30.50;57.20;;;;;;5029778;28;20455;-68
2022/08/06 13:03:55;;;;;;;3.77;1.93;;;30.90;57.50;;;;;;5029275;28;20449;-68